sensor_id;sensor_type;location;lat;lon;timestamp;P1;durP1;ratioP1;P2;durP2;ratioP2
36971;SDS011;40554;52.122;20.678;2023-01-24T09:36:58;98.40;;;37.90;;
36971;SDS011;40554;52.122;20.678;2023-01-24T09:39:15;85.20;;;33.20;;
36971;SDS011;40554;52.122;20.678;2023-01-24T09:41:55;97.60;;;37.20;;
36971;SDS011;40554;52.122;20.678;2023-01-24T09:44:31;93.00;;;38.90;;
36971;SDS011;40554;52.122;20.678;2023-01-24T09:47:00;95.30;;;38.60;;
36971;SDS011;40554;52.122;20.678;2023-01-24T09:51:47;95.10;;;39.10;;
36971;SDS011;40554;52.122;20.678;2023-01-24T09:54:09;85.20;;;37.80;;
36971;SDS011;40554;52.122;20.678;2023-01-24T09:56:36;93.50;;;38.50;;
36971;SDS011;40554;52.122;20.678;2023-01-24T09:58:59;91.00;;;38.20;;
36971;SDS011;40554;52.122;20.678;2023-01-24T10:01:25;87.30;;;38.40;;
36971;SDS011;40554;52.122;20.678;2023-01-24T10:03:42;90.00;;;37.30;;
36971;SDS011;40554;52.122;20.678;2023-01-24T10:05:59;82.20;;;35.00;;
36971;SDS011;40554;52.122;20.678;2023-01-24T10:19:03;124.30;;;52.00;;
36971;SDS011;40554;52.122;20.678;2023-01-24T10:21:41;94.60;;;40.70;;
36971;SDS011;40554;52.122;20.678;2023-01-24T10:24:03;81.60;;;33.10;;
36971;SDS011;40554;52.122;20.678;2023-01-24T10:26:29;78.80;;;35.00;;
36971;SDS011;40554;52.122;20.678;2023-01-24T10:28:51;79.40;;;33.30;;
36971;SDS011;40554;52.122;20.678;2023-01-24T10:33:48;79.80;;;32.30;;
36971;SDS011;40554;52.122;20.678;2023-01-24T10:36:15;73.10;;;31.00;;
36971;SDS011;40554;52.122;20.678;2023-01-24T10:38:53;78.90;;;33.10;;
36971;SDS011;40554;52.122;20.678;2023-01-24T10:41:43;70.60;;;32.40;;
36971;SDS011;40554;52.122;20.678;2023-01-24T10:46:19;66.90;;;30.30;;
36971;SDS011;40554;52.122;20.678;2023-01-24T10:48:45;63.60;;;30.70;;
36971;SDS011;40554;52.122;20.678;2023-01-24T10:51:11;68.30;;;31.00;;
36971;SDS011;40554;52.122;20.678;2023-01-24T10:53:30;68.70;;;31.90;;
36971;SDS011;40554;52.122;20.678;2023-01-24T10:55:47;65.20;;;32.10;;
36971;SDS011;40554;52.122;20.678;2023-01-24T10:58:18;71.80;;;32.90;;
36971;SDS011;40554;52.122;20.678;2023-01-24T11:00:40;107.80;;;34.70;;
36971;SDS011;40554;52.122;20.678;2023-01-24T11:03:03;75.00;;;32.60;;
36971;SDS011;40554;52.122;20.678;2023-01-24T11:05:21;71.90;;;31.40;;
36971;SDS011;40554;52.122;20.678;2023-01-24T11:07:39;67.60;;;30.60;;
36971;SDS011;40554;52.122;20.678;2023-01-24T11:10:10;67.70;;;30.10;;
36971;SDS011;40554;52.122;20.678;2023-01-24T11:12:35;68.60;;;30.10;;
36971;SDS011;40554;52.122;20.678;2023-01-24T11:14:51;67.80;;;29.40;;
36971;SDS011;40554;52.122;20.678;2023-01-24T11:17:08;64.50;;;30.50;;
36971;SDS011;40554;52.122;20.678;2023-01-24T11:19:46;68.90;;;31.10;;
36971;SDS011;40554;52.122;20.678;2023-01-24T11:22:17;87.10;;;30.40;;
36971;SDS011;40554;52.122;20.678;2023-01-24T11:24:42;66.40;;;29.10;;
36971;SDS011;40554;52.122;20.678;2023-01-24T11:27:04;61.20;;;27.60;;
36971;SDS011;40554;52.122;20.678;2023-01-24T11:29:29;67.30;;;29.40;;
36971;SDS011;40554;52.122;20.678;2023-01-24T11:31:48;71.90;;;32.50;;
36971;SDS011;40554;52.122;20.678;2023-01-24T11:36:34;60.40;;;29.10;;
36971;SDS011;40554;52.122;20.678;2023-01-24T11:38:57;64.00;;;28.80;;
36971;SDS011;40554;52.122;20.678;2023-01-24T11:41:32;64.10;;;29.50;;
36971;SDS011;40554;52.122;20.678;2023-01-24T11:49:29;64.20;;;27.20;;
36971;SDS011;40554;52.122;20.678;2023-01-24T11:58:18;61.40;;;29.60;;
36971;SDS011;40554;52.122;20.678;2023-01-24T12:05:34;66.40;;;27.70;;
36971;SDS011;40554;52.122;20.678;2023-01-24T12:10:24;71.20;;;31.20;;
36971;SDS011;40554;52.122;20.678;2023-01-24T12:13:26;84.90;;;33.00;;
36971;SDS011;40554;52.122;20.678;2023-01-24T12:20:58;63.80;;;27.70;;
36971;SDS011;40554;52.122;20.678;2023-01-24T12:23:37;56.10;;;27.00;;
36971;SDS011;40554;52.122;20.678;2023-01-24T12:26:00;68.30;;;30.30;;
36971;SDS011;40554;52.122;20.678;2023-01-24T12:28:47;68.40;;;31.10;;
36971;SDS011;40554;52.122;20.678;2023-01-24T12:31:11;67.70;;;30.00;;
36971;SDS011;40554;52.122;20.678;2023-01-24T12:35:55;58.50;;;27.00;;
36971;SDS011;40554;52.122;20.678;2023-01-24T12:40:58;74.20;;;29.50;;
36971;SDS011;40554;52.122;20.678;2023-01-24T12:43:26;62.40;;;28.90;;
36971;SDS011;40554;52.122;20.678;2023-01-24T12:45:58;61.10;;;28.70;;
36971;SDS011;40554;52.122;20.678;2023-01-24T12:48:50;62.80;;;27.60;;
36971;SDS011;40554;52.122;20.678;2023-01-24T12:51:23;54.50;;;26.00;;
36971;SDS011;40554;52.122;20.678;2023-01-24T12:53:54;59.00;;;25.50;;
36971;SDS011;40554;52.122;20.678;2023-01-24T12:56:33;67.30;;;27.10;;
36971;SDS011;40554;52.122;20.678;2023-01-24T12:59:00;77.40;;;33.90;;
36971;SDS011;40554;52.122;20.678;2023-01-24T13:06:23;92.00;;;42.00;;
36971;SDS011;40554;52.122;20.678;2023-01-24T13:09:06;69.20;;;32.50;;
36971;SDS011;40554;52.122;20.678;2023-01-24T13:11:44;62.50;;;30.10;;
36971;SDS011;40554;52.122;20.678;2023-01-24T13:14:05;64.50;;;28.50;;
36971;SDS011;40554;52.122;20.678;2023-01-24T13:26:51;63.60;;;28.70;;
36971;SDS011;40554;52.122;20.678;2023-01-24T13:29:27;72.50;;;35.70;;
36971;SDS011;40554;52.122;20.678;2023-01-24T13:32:09;78.90;;;39.30;;
36971;SDS011;40554;52.122;20.678;2023-01-24T13:34:35;68.70;;;34.00;;
36971;SDS011;40554;52.122;20.678;2023-01-24T13:39:34;59.40;;;26.80;;
36971;SDS011;40554;52.122;20.678;2023-01-24T13:42:04;61.20;;;27.90;;
36971;SDS011;40554;52.122;20.678;2023-01-24T13:44:34;61.70;;;27.10;;
36971;SDS011;40554;52.122;20.678;2023-01-24T13:47:01;57.20;;;26.60;;
36971;SDS011;40554;52.122;20.678;2023-01-24T13:51:48;52.90;;;25.50;;
36971;SDS011;40554;52.122;20.678;2023-01-24T13:54:15;51.80;;;21.80;;
36971;SDS011;40554;52.122;20.678;2023-01-24T13:57:09;50.20;;;23.80;;
36971;SDS011;40554;52.122;20.678;2023-01-24T13:59:41;56.70;;;26.40;;
36971;SDS011;40554;52.122;20.678;2023-01-24T14:02:23;52.00;;;23.80;;
36971;SDS011;40554;52.122;20.678;2023-01-24T14:04:44;48.40;;;23.30;;
36971;SDS011;40554;52.122;20.678;2023-01-24T14:07:01;58.30;;;24.40;;
36971;SDS011;40554;52.122;20.678;2023-01-24T14:09:33;59.60;;;27.20;;
36971;SDS011;40554;52.122;20.678;2023-01-24T14:11:55;59.10;;;26.90;;
36971;SDS011;40554;52.122;20.678;2023-01-24T14:14:26;62.30;;;25.10;;
36971;SDS011;40554;52.122;20.678;2023-01-24T14:19:16;58.50;;;26.00;;
36971;SDS011;40554;52.122;20.678;2023-01-24T14:21:52;61.00;;;25.70;;
36971;SDS011;40554;52.122;20.678;2023-01-24T14:26:52;59.20;;;27.20;;
36971;SDS011;40554;52.122;20.678;2023-01-24T14:29:15;67.50;;;28.00;;
36971;SDS011;40554;52.122;20.678;2023-01-24T14:31:34;60.10;;;25.60;;
36971;SDS011;40554;52.122;20.678;2023-01-24T14:36:37;58.20;;;26.50;;
36971;SDS011;40554;52.122;20.678;2023-01-24T14:39:16;63.10;;;27.00;;
36971;SDS011;40554;52.122;20.678;2023-01-24T14:41:41;57.50;;;26.50;;
36971;SDS011;40554;52.122;20.678;2023-01-24T14:43:58;66.00;;;27.70;;
36971;SDS011;40554;52.122;20.678;2023-01-24T14:46:21;66.40;;;29.80;;
36971;SDS011;40554;52.122;20.678;2023-01-24T14:48:39;65.20;;;29.40;;
36971;SDS011;40554;52.122;20.678;2023-01-24T14:50:57;71.60;;;31.50;;
36971;SDS011;40554;52.122;20.678;2023-01-24T14:53:22;71.50;;;30.80;;
36971;SDS011;40554;52.122;20.678;2023-01-24T14:55:46;69.20;;;30.30;;
36971;SDS011;40554;52.122;20.678;2023-01-24T14:58:15;65.40;;;29.60;;
36971;SDS011;40554;52.122;20.678;2023-01-24T15:00:36;64.20;;;29.30;;
36971;SDS011;40554;52.122;20.678;2023-01-24T15:05:27;63.50;;;31.30;;
36971;SDS011;40554;52.122;20.678;2023-01-24T15:07:48;73.60;;;30.40;;
36971;SDS011;40554;52.122;20.678;2023-01-24T15:10:11;66.00;;;31.50;;
36971;SDS011;40554;52.122;20.678;2023-01-24T15:12:30;70.20;;;32.30;;
36971;SDS011;40554;52.122;20.678;2023-01-24T15:14:49;67.10;;;31.80;;
36971;SDS011;40554;52.122;20.678;2023-01-24T15:17:14;67.50;;;29.70;;
36971;SDS011;40554;52.122;20.678;2023-01-24T15:19:35;65.80;;;30.70;;
36971;SDS011;40554;52.122;20.678;2023-01-24T15:21:52;65.20;;;31.10;;
36971;SDS011;40554;52.122;20.678;2023-01-24T15:24:47;68.30;;;31.70;;
36971;SDS011;40554;52.122;20.678;2023-01-24T15:26:57;69.80;;;33.50;;
36971;SDS011;40554;52.122;20.678;2023-01-24T15:31:50;64.80;;;32.40;;
36971;SDS011;40554;52.122;20.678;2023-01-24T15:34:16;72.30;;;33.30;;
36971;SDS011;40554;52.122;20.678;2023-01-24T15:36:35;76.30;;;36.40;;
36971;SDS011;40554;52.122;20.678;2023-01-24T15:38:51;72.30;;;34.20;;
36971;SDS011;40554;52.122;20.678;2023-01-24T15:43:34;75.50;;;37.20;;
36971;SDS011;40554;52.122;20.678;2023-01-24T15:46:02;75.50;;;33.10;;
36971;SDS011;40554;52.122;20.678;2023-01-24T15:48:39;62.80;;;30.90;;
36971;SDS011;40554;52.122;20.678;2023-01-24T15:50:55;66.80;;;30.40;;
36971;SDS011;40554;52.122;20.678;2023-01-24T15:53:22;65.80;;;30.00;;
36971;SDS011;40554;52.122;20.678;2023-01-24T15:55:42;63.70;;;31.40;;
36971;SDS011;40554;52.122;20.678;2023-01-24T15:57:58;65.00;;;32.30;;
36971;SDS011;40554;52.122;20.678;2023-01-24T16:02:30;73.20;;;34.00;;
36971;SDS011;40554;52.122;20.678;2023-01-24T16:04:47;71.60;;;34.10;;
36971;SDS011;40554;52.122;20.678;2023-01-24T16:07:03;77.90;;;36.20;;
36971;SDS011;40554;52.122;20.678;2023-01-24T16:09:19;70.30;;;34.40;;
36971;SDS011;40554;52.122;20.678;2023-01-24T16:11:36;74.10;;;35.10;;
36971;SDS011;40554;52.122;20.678;2023-01-24T16:13:53;79.40;;;37.30;;
36971;SDS011;40554;52.122;20.678;2023-01-24T16:16:12;72.60;;;33.10;;
36971;SDS011;40554;52.122;20.678;2023-01-24T16:18:30;72.40;;;34.50;;
36971;SDS011;40554;52.122;20.678;2023-01-24T16:20:46;66.30;;;32.10;;
36971;SDS011;40554;52.122;20.678;2023-01-24T16:23:02;69.70;;;32.30;;
36971;SDS011;40554;52.122;20.678;2023-01-24T16:25:19;66.10;;;31.10;;
36971;SDS011;40554;52.122;20.678;2023-01-24T16:27:37;69.70;;;30.60;;
36971;SDS011;40554;52.122;20.678;2023-01-24T16:29:55;72.50;;;32.60;;
36971;SDS011;40554;52.122;20.678;2023-01-24T16:32:18;68.90;;;32.60;;
36971;SDS011;40554;52.122;20.678;2023-01-24T16:34:36;65.30;;;31.50;;
36971;SDS011;40554;52.122;20.678;2023-01-24T16:36:52;74.40;;;33.40;;
36971;SDS011;40554;52.122;20.678;2023-01-24T16:39:09;76.10;;;33.40;;
36971;SDS011;40554;52.122;20.678;2023-01-24T16:41:33;69.70;;;32.10;;
36971;SDS011;40554;52.122;20.678;2023-01-24T16:43:49;77.00;;;34.10;;
36971;SDS011;40554;52.122;20.678;2023-01-24T16:46:10;83.80;;;37.50;;
36971;SDS011;40554;52.122;20.678;2023-01-24T16:48:33;83.10;;;35.40;;
36971;SDS011;40554;52.122;20.678;2023-01-24T16:50:49;76.60;;;35.90;;
36971;SDS011;40554;52.122;20.678;2023-01-24T16:53:05;73.80;;;36.20;;
36971;SDS011;40554;52.122;20.678;2023-01-24T16:55:22;73.50;;;36.20;;
36971;SDS011;40554;52.122;20.678;2023-01-24T16:57:38;73.70;;;35.80;;
36971;SDS011;40554;52.122;20.678;2023-01-24T16:59:54;73.70;;;35.60;;
36971;SDS011;40554;52.122;20.678;2023-01-24T17:02:11;80.40;;;38.90;;
36971;SDS011;40554;52.122;20.678;2023-01-24T17:04:28;70.50;;;36.20;;
36971;SDS011;40554;52.122;20.678;2023-01-24T17:06:44;83.40;;;37.10;;
36971;SDS011;40554;52.122;20.678;2023-01-24T17:09:01;83.90;;;36.70;;
36971;SDS011;40554;52.122;20.678;2023-01-24T17:11:21;77.00;;;37.60;;
36971;SDS011;40554;52.122;20.678;2023-01-24T17:13:38;86.80;;;37.60;;
36971;SDS011;40554;52.122;20.678;2023-01-24T17:15:54;82.10;;;39.50;;
36971;SDS011;40554;52.122;20.678;2023-01-24T17:18:10;84.00;;;37.50;;
36971;SDS011;40554;52.122;20.678;2023-01-24T17:20:26;79.60;;;38.10;;
36971;SDS011;40554;52.122;20.678;2023-01-24T17:22:43;75.70;;;37.20;;
36971;SDS011;40554;52.122;20.678;2023-01-24T17:24:59;87.30;;;39.60;;
36971;SDS011;40554;52.122;20.678;2023-01-24T17:27:15;84.90;;;38.80;;
36971;SDS011;40554;52.122;20.678;2023-01-24T17:29:32;83.40;;;40.20;;
36971;SDS011;40554;52.122;20.678;2023-01-24T17:31:48;82.50;;;38.10;;
36971;SDS011;40554;52.122;20.678;2023-01-24T17:34:05;73.80;;;36.20;;
36971;SDS011;40554;52.122;20.678;2023-01-24T17:36:21;82.60;;;37.40;;
36971;SDS011;40554;52.122;20.678;2023-01-24T17:38:37;79.20;;;37.30;;
36971;SDS011;40554;52.122;20.678;2023-01-24T17:40:53;81.90;;;38.00;;
36971;SDS011;40554;52.122;20.678;2023-01-24T17:43:10;80.40;;;38.70;;
36971;SDS011;40554;52.122;20.678;2023-01-24T17:45:26;73.20;;;36.40;;
36971;SDS011;40554;52.122;20.678;2023-01-24T17:47:42;87.60;;;38.30;;
36971;SDS011;40554;52.122;20.678;2023-01-24T17:49:58;90.10;;;40.00;;
36971;SDS011;40554;52.122;20.678;2023-01-24T17:52:15;84.90;;;38.10;;
36971;SDS011;40554;52.122;20.678;2023-01-24T17:54:31;86.00;;;39.40;;
36971;SDS011;40554;52.122;20.678;2023-01-24T17:56:48;87.00;;;38.80;;
36971;SDS011;40554;52.122;20.678;2023-01-24T17:59:04;81.20;;;35.50;;
36971;SDS011;40554;52.122;20.678;2023-01-24T18:01:20;86.60;;;38.40;;
36971;SDS011;40554;52.122;20.678;2023-01-24T18:03:36;80.90;;;36.40;;
36971;SDS011;40554;52.122;20.678;2023-01-24T18:05:53;81.60;;;35.80;;
36971;SDS011;40554;52.122;20.678;2023-01-24T18:08:09;78.10;;;36.50;;
36971;SDS011;40554;52.122;20.678;2023-01-24T18:10:25;74.40;;;36.00;;
36971;SDS011;40554;52.122;20.678;2023-01-24T18:12:42;82.40;;;36.00;;
36971;SDS011;40554;52.122;20.678;2023-01-24T18:14:58;85.10;;;36.80;;
36971;SDS011;40554;52.122;20.678;2023-01-24T18:17:15;77.30;;;37.10;;
36971;SDS011;40554;52.122;20.678;2023-01-24T18:19:31;84.20;;;38.90;;
36971;SDS011;40554;52.122;20.678;2023-01-24T18:21:47;84.20;;;37.50;;
36971;SDS011;40554;52.122;20.678;2023-01-24T18:24:06;75.00;;;35.60;;
36971;SDS011;40554;52.122;20.678;2023-01-24T18:26:23;76.40;;;34.90;;
36971;SDS011;40554;52.122;20.678;2023-01-24T18:28:40;84.80;;;36.30;;
36971;SDS011;40554;52.122;20.678;2023-01-24T18:30:57;82.70;;;37.10;;
36971;SDS011;40554;52.122;20.678;2023-01-24T18:33:13;84.30;;;33.60;;
36971;SDS011;40554;52.122;20.678;2023-01-24T18:35:29;75.40;;;34.30;;
36971;SDS011;40554;52.122;20.678;2023-01-24T18:37:47;83.60;;;35.60;;
36971;SDS011;40554;52.122;20.678;2023-01-24T18:40:03;77.20;;;35.20;;
36971;SDS011;40554;52.122;20.678;2023-01-24T18:42:20;81.50;;;32.80;;
36971;SDS011;40554;52.122;20.678;2023-01-24T18:44:36;81.60;;;36.20;;
36971;SDS011;40554;52.122;20.678;2023-01-24T18:46:52;85.50;;;37.30;;
36971;SDS011;40554;52.122;20.678;2023-01-24T18:49:09;82.60;;;36.70;;
36971;SDS011;40554;52.122;20.678;2023-01-24T18:51:26;80.20;;;36.10;;
36971;SDS011;40554;52.122;20.678;2023-01-24T18:53:43;82.10;;;35.40;;
36971;SDS011;40554;52.122;20.678;2023-01-24T18:56:01;79.10;;;35.90;;
36971;SDS011;40554;52.122;20.678;2023-01-24T18:58:19;74.00;;;32.50;;
36971;SDS011;40554;52.122;20.678;2023-01-24T19:00:35;78.70;;;34.10;;
36971;SDS011;40554;52.122;20.678;2023-01-24T19:02:51;87.80;;;37.10;;
36971;SDS011;40554;52.122;20.678;2023-01-24T19:05:08;83.90;;;37.40;;
36971;SDS011;40554;52.122;20.678;2023-01-24T19:07:24;93.80;;;38.30;;
36971;SDS011;40554;52.122;20.678;2023-01-24T19:09:40;83.20;;;36.10;;
36971;SDS011;40554;52.122;20.678;2023-01-24T19:11:57;89.30;;;35.60;;
36971;SDS011;40554;52.122;20.678;2023-01-24T19:14:13;90.50;;;35.70;;
36971;SDS011;40554;52.122;20.678;2023-01-24T19:16:33;81.70;;;35.90;;
